sensor_id;sensor_type;location;lat;lon;timestamp;P1;durP1;ratioP1;P2;durP2;ratioP2
64799;SDS011;51233;51.982;4.594;2023-02-08T00:02:28;9.83;;;8.83;;
64799;SDS011;51233;51.982;4.594;2023-02-08T00:05:29;10.52;;;8.60;;
64799;SDS011;51233;51.982;4.594;2023-02-08T00:08:29;10.48;;;9.38;;
64799;SDS011;51233;51.982;4.594;2023-02-08T00:11:29;10.63;;;9.48;;
64799;SDS011;51233;51.982;4.594;2023-02-08T00:14:29;9.87;;;8.70;;
64799;SDS011;51233;51.982;4.594;2023-02-08T00:17:30;9.77;;;8.43;;
64799;SDS011;51233;51.982;4.594;2023-02-08T00:20:30;10.98;;;8.98;;
64799;SDS011;51233;51.982;4.594;2023-02-08T00:23:30;10.18;;;8.68;;
64799;SDS011;51233;51.982;4.594;2023-02-08T00:26:30;11.07;;;9.40;;
64799;SDS011;51233;51.982;4.594;2023-02-08T00:29:31;10.70;;;9.35;;
64799;SDS011;51233;51.982;4.594;2023-02-08T00:32:31;13.18;;;9.18;;
64799;SDS011;51233;51.982;4.594;2023-02-08T00:35:31;10.18;;;9.15;;
64799;SDS011;51233;51.982;4.594;2023-02-08T00:38:31;10.63;;;9.00;;
64799;SDS011;51233;51.982;4.594;2023-02-08T00:41:31;10.45;;;8.77;;
64799;SDS011;51233;51.982;4.594;2023-02-08T00:44:32;15.07;;;8.98;;
64799;SDS011;51233;51.982;4.594;2023-02-08T00:47:32;10.10;;;8.75;;
64799;SDS011;51233;51.982;4.594;2023-02-08T00:50:32;12.23;;;9.10;;
64799;SDS011;51233;51.982;4.594;2023-02-08T00:53:36;12.07;;;9.18;;
64799;SDS011;51233;51.982;4.594;2023-02-08T00:56:36;10.10;;;8.98;;
64799;SDS011;51233;51.982;4.594;2023-02-08T00:59:37;12.48;;;8.70;;
64799;SDS011;51233;51.982;4.594;2023-02-08T01:02:37;11.07;;;8.88;;
64799;SDS011;51233;51.982;4.594;2023-02-08T01:05:38;10.90;;;9.18;;
64799;SDS011;51233;51.982;4.594;2023-02-08T01:08:38;11.47;;;8.87;;
64799;SDS011;51233;51.982;4.594;2023-02-08T01:11:38;9.67;;;8.57;;
64799;SDS011;51233;51.982;4.594;2023-02-08T01:14:38;11.88;;;8.57;;
64799;SDS011;51233;51.982;4.594;2023-02-08T01:17:39;9.40;;;8.40;;
64799;SDS011;51233;51.982;4.594;2023-02-08T01:20:39;10.40;;;8.23;;
64799;SDS011;51233;51.982;4.594;2023-02-08T01:23:39;11.27;;;8.35;;
64799;SDS011;51233;51.982;4.594;2023-02-08T01:26:40;9.23;;;8.27;;
64799;SDS011;51233;51.982;4.594;2023-02-08T01:29:40;9.55;;;8.15;;
64799;SDS011;51233;51.982;4.594;2023-02-08T01:32:40;9.87;;;8.10;;
64799;SDS011;51233;51.982;4.594;2023-02-08T01:35:40;10.70;;;8.50;;
64799;SDS011;51233;51.982;4.594;2023-02-08T01:38:41;10.02;;;8.27;;
64799;SDS011;51233;51.982;4.594;2023-02-08T01:41:42;9.30;;;8.27;;
64799;SDS011;51233;51.982;4.594;2023-02-08T01:48:35;12.52;;;9.15;;
64799;SDS011;51233;51.982;4.594;2023-02-08T01:51:39;10.77;;;8.60;;
64799;SDS011;51233;51.982;4.594;2023-02-08T01:54:56;8.70;;;7.50;;
64799;SDS011;51233;51.982;4.594;2023-02-08T01:58:00;10.88;;;8.77;;
64799;SDS011;51233;51.982;4.594;2023-02-08T02:01:02;10.13;;;8.68;;
64799;SDS011;51233;51.982;4.594;2023-02-08T02:04:02;9.25;;;8.35;;
64799;SDS011;51233;51.982;4.594;2023-02-08T02:07:03;9.55;;;8.10;;
64799;SDS011;51233;51.982;4.594;2023-02-08T02:10:08;9.75;;;8.18;;
64799;SDS011;51233;51.982;4.594;2023-02-08T02:13:13;8.98;;;8.07;;
64799;SDS011;51233;51.982;4.594;2023-02-08T02:16:14;10.32;;;8.38;;
64799;SDS011;51233;51.982;4.594;2023-02-08T02:19:29;11.40;;;8.68;;
64799;SDS011;51233;51.982;4.594;2023-02-08T02:51:14;8.05;;;7.25;;
64799;SDS011;51233;51.982;4.594;2023-02-08T02:54:16;9.43;;;7.35;;
64799;SDS011;51233;51.982;4.594;2023-02-08T02:57:21;7.75;;;7.03;;
64799;SDS011;51233;51.982;4.594;2023-02-08T03:00:23;7.93;;;6.68;;
64799;SDS011;51233;51.982;4.594;2023-02-08T03:03:26;8.32;;;7.03;;
64799;SDS011;51233;51.982;4.594;2023-02-08T03:13:00;8.35;;;7.00;;
64799;SDS011;51233;51.982;4.594;2023-02-08T03:22:42;9.38;;;7.82;;
64799;SDS011;51233;51.982;4.594;2023-02-08T03:25:51;8.95;;;7.80;;
64799;SDS011;51233;51.982;4.594;2023-02-08T03:32:53;8.48;;;7.55;;
64799;SDS011;51233;51.982;4.594;2023-02-08T03:35:32;11.18;;;8.00;;
64799;SDS011;51233;51.982;4.594;2023-02-08T03:38:38;8.82;;;7.93;;
64799;SDS011;51233;51.982;4.594;2023-02-08T03:41:41;10.13;;;8.15;;
64799;SDS011;51233;51.982;4.594;2023-02-08T03:44:44;9.90;;;8.70;;
64799;SDS011;51233;51.982;4.594;2023-02-08T03:47:45;9.23;;;8.13;;
64799;SDS011;51233;51.982;4.594;2023-02-08T03:53:56;8.93;;;7.68;;
64799;SDS011;51233;51.982;4.594;2023-02-08T03:57:03;10.17;;;8.00;;
64799;SDS011;51233;51.982;4.594;2023-02-08T04:00:06;8.52;;;7.68;;
64799;SDS011;51233;51.982;4.594;2023-02-08T04:03:14;9.40;;;7.55;;
64799;SDS011;51233;51.982;4.594;2023-02-08T04:06:15;8.68;;;7.55;;
64799;SDS011;51233;51.982;4.594;2023-02-08T04:09:16;9.93;;;8.45;;
64799;SDS011;51233;51.982;4.594;2023-02-08T04:12:16;9.67;;;8.20;;
64799;SDS011;51233;51.982;4.594;2023-02-08T04:15:16;9.02;;;8.15;;
64799;SDS011;51233;51.982;4.594;2023-02-08T04:18:16;8.48;;;7.65;;
64799;SDS011;51233;51.982;4.594;2023-02-08T04:21:17;8.25;;;7.38;;
64799;SDS011;51233;51.982;4.594;2023-02-08T04:24:17;9.70;;;8.10;;
64799;SDS011;51233;51.982;4.594;2023-02-08T04:27:17;10.40;;;8.18;;
64799;SDS011;51233;51.982;4.594;2023-02-08T04:30:17;11.65;;;8.93;;
64799;SDS011;51233;51.982;4.594;2023-02-08T04:33:17;9.07;;;7.97;;
64799;SDS011;51233;51.982;4.594;2023-02-08T04:36:18;8.98;;;8.05;;
64799;SDS011;51233;51.982;4.594;2023-02-08T04:39:18;9.00;;;8.10;;
64799;SDS011;51233;51.982;4.594;2023-02-08T04:42:21;9.60;;;7.70;;
64799;SDS011;51233;51.982;4.594;2023-02-08T04:45:21;8.68;;;7.78;;
64799;SDS011;51233;51.982;4.594;2023-02-08T04:48:21;13.02;;;8.30;;
64799;SDS011;51233;51.982;4.594;2023-02-08T04:51:21;9.70;;;8.43;;
64799;SDS011;51233;51.982;4.594;2023-02-08T04:54:22;8.98;;;7.90;;
64799;SDS011;51233;51.982;4.594;2023-02-08T04:57:22;8.63;;;7.82;;
64799;SDS011;51233;51.982;4.594;2023-02-08T05:00:22;9.07;;;7.83;;
64799;SDS011;51233;51.982;4.594;2023-02-08T05:03:22;10.05;;;8.52;;
64799;SDS011;51233;51.982;4.594;2023-02-08T05:06:22;10.03;;;8.20;;
64799;SDS011;51233;51.982;4.594;2023-02-08T05:09:23;10.27;;;7.80;;
64799;SDS011;51233;51.982;4.594;2023-02-08T05:12:23;11.77;;;8.77;;
64799;SDS011;51233;51.982;4.594;2023-02-08T05:15:23;9.15;;;8.10;;
64799;SDS011;51233;51.982;4.594;2023-02-08T05:18:23;14.15;;;8.27;;
64799;SDS011;51233;51.982;4.594;2023-02-08T05:21:23;9.90;;;8.50;;
64799;SDS011;51233;51.982;4.594;2023-02-08T05:24:24;10.27;;;8.48;;
64799;SDS011;51233;51.982;4.594;2023-02-08T05:27:24;10.02;;;8.60;;
64799;SDS011;51233;51.982;4.594;2023-02-08T05:30:27;11.50;;;8.68;;
64799;SDS011;51233;51.982;4.594;2023-02-08T05:33:27;10.37;;;8.17;;
64799;SDS011;51233;51.982;4.594;2023-02-08T05:36:28;11.93;;;8.95;;
64799;SDS011;51233;51.982;4.594;2023-02-08T05:39:28;13.33;;;8.23;;
64799;SDS011;51233;51.982;4.594;2023-02-08T05:42:28;9.23;;;7.93;;
64799;SDS011;51233;51.982;4.594;2023-02-08T05:45:28;9.52;;;8.38;;
64799;SDS011;51233;51.982;4.594;2023-02-08T05:48:29;9.45;;;8.43;;
64799;SDS011;51233;51.982;4.594;2023-02-08T05:51:35;13.15;;;8.20;;
64799;SDS011;51233;51.982;4.594;2023-02-08T05:54:35;9.52;;;8.43;;
64799;SDS011;51233;51.982;4.594;2023-02-08T05:57:35;11.63;;;7.90;;
64799;SDS011;51233;51.982;4.594;2023-02-08T06:00:36;11.95;;;7.88;;
64799;SDS011;51233;51.982;4.594;2023-02-08T06:03:37;10.02;;;8.25;;
64799;SDS011;51233;51.982;4.594;2023-02-08T06:06:37;9.10;;;8.20;;
64799;SDS011;51233;51.982;4.594;2023-02-08T06:09:37;11.83;;;8.57;;
64799;SDS011;51233;51.982;4.594;2023-02-08T06:12:37;9.53;;;8.33;;
64799;SDS011;51233;51.982;4.594;2023-02-08T06:15:37;8.90;;;7.82;;
64799;SDS011;51233;51.982;4.594;2023-02-08T06:18:38;11.32;;;8.38;;
64799;SDS011;51233;51.982;4.594;2023-02-08T06:21:38;9.15;;;8.10;;
64799;SDS011;51233;51.982;4.594;2023-02-08T06:24:44;10.73;;;8.23;;
64799;SDS011;51233;51.982;4.594;2023-02-08T06:27:45;13.10;;;8.23;;
64799;SDS011;51233;51.982;4.594;2023-02-08T06:30:45;9.52;;;8.25;;
64799;SDS011;51233;51.982;4.594;2023-02-08T06:33:47;13.32;;;8.27;;
64799;SDS011;51233;51.982;4.594;2023-02-08T06:36:59;8.25;;;7.43;;
64799;SDS011;51233;51.982;4.594;2023-02-08T06:40:01;10.27;;;8.27;;
64799;SDS011;51233;51.982;4.594;2023-02-08T06:43:04;9.52;;;8.50;;
64799;SDS011;51233;51.982;4.594;2023-02-08T06:46:04;8.98;;;8.00;;
64799;SDS011;51233;51.982;4.594;2023-02-08T06:49:07;9.35;;;7.80;;
64799;SDS011;51233;51.982;4.594;2023-02-08T06:52:07;12.20;;;9.07;;
64799;SDS011;51233;51.982;4.594;2023-02-08T06:55:08;10.45;;;8.65;;
64799;SDS011;51233;51.982;4.594;2023-02-08T06:58:08;10.27;;;8.30;;
64799;SDS011;51233;51.982;4.594;2023-02-08T07:01:14;10.20;;;8.73;;
64799;SDS011;51233;51.982;4.594;2023-02-08T07:04:15;13.57;;;8.70;;
64799;SDS011;51233;51.982;4.594;2023-02-08T07:07:15;10.33;;;8.77;;
64799;SDS011;51233;51.982;4.594;2023-02-08T07:10:19;12.13;;;8.73;;
64799;SDS011;51233;51.982;4.594;2023-02-08T07:13:19;8.55;;;7.13;;
64799;SDS011;51233;51.982;4.594;2023-02-08T07:16:19;11.77;;;8.48;;
64799;SDS011;51233;51.982;4.594;2023-02-08T07:19:20;18.10;;;8.95;;
64799;SDS011;51233;51.982;4.594;2023-02-08T07:22:20;11.18;;;8.05;;
64799;SDS011;51233;51.982;4.594;2023-02-08T07:25:20;11.25;;;9.13;;
64799;SDS011;51233;51.982;4.594;2023-02-08T07:28:21;16.42;;;7.68;;
64799;SDS011;51233;51.982;4.594;2023-02-08T07:31:21;11.48;;;8.20;;
64799;SDS011;51233;51.982;4.594;2023-02-08T07:34:21;13.15;;;8.35;;
64799;SDS011;51233;51.982;4.594;2023-02-08T07:37:22;10.43;;;8.25;;
64799;SDS011;51233;51.982;4.594;2023-02-08T07:40:22;12.57;;;8.43;;
64799;SDS011;51233;51.982;4.594;2023-02-08T07:43:25;10.38;;;8.23;;
64799;SDS011;51233;51.982;4.594;2023-02-08T07:46:25;12.13;;;8.38;;
64799;SDS011;51233;51.982;4.594;2023-02-08T07:49:26;8.98;;;8.07;;
64799;SDS011;51233;51.982;4.594;2023-02-08T07:52:26;9.75;;;8.25;;
64799;SDS011;51233;51.982;4.594;2023-02-08T07:55:32;10.20;;;8.32;;
64799;SDS011;51233;51.982;4.594;2023-02-08T07:58:32;10.88;;;8.48;;
64799;SDS011;51233;51.982;4.594;2023-02-08T08:01:32;10.40;;;8.20;;
64799;SDS011;51233;51.982;4.594;2023-02-08T08:04:35;11.82;;;8.35;;
64799;SDS011;51233;51.982;4.594;2023-02-08T08:07:36;12.43;;;9.20;;
64799;SDS011;51233;51.982;4.594;2023-02-08T08:10:36;12.30;;;9.07;;
64799;SDS011;51233;51.982;4.594;2023-02-08T08:13:39;11.02;;;9.18;;
64799;SDS011;51233;51.982;4.594;2023-02-08T08:16:39;15.48;;;9.05;;
64799;SDS011;51233;51.982;4.594;2023-02-08T08:19:41;12.68;;;9.18;;
64799;SDS011;51233;51.982;4.594;2023-02-08T08:22:41;13.52;;;9.00;;
64799;SDS011;51233;51.982;4.594;2023-02-08T08:25:41;12.17;;;9.83;;
64799;SDS011;51233;51.982;4.594;2023-02-08T08:28:42;12.38;;;9.43;;
64799;SDS011;51233;51.982;4.594;2023-02-08T08:31:42;12.15;;;9.07;;
64799;SDS011;51233;51.982;4.594;2023-02-08T08:34:42;12.05;;;9.68;;
64799;SDS011;51233;51.982;4.594;2023-02-08T08:37:43;10.00;;;8.85;;
64799;SDS011;51233;51.982;4.594;2023-02-08T08:40:43;10.85;;;9.27;;
64799;SDS011;51233;51.982;4.594;2023-02-08T08:43:43;10.18;;;9.02;;
64799;SDS011;51233;51.982;4.594;2023-02-08T08:46:43;11.52;;;8.82;;
64799;SDS011;51233;51.982;4.594;2023-02-08T08:49:44;10.60;;;9.33;;
64799;SDS011;51233;51.982;4.594;2023-02-08T08:52:44;11.93;;;9.00;;
64799;SDS011;51233;51.982;4.594;2023-02-08T08:55:44;10.60;;;9.20;;
64799;SDS011;51233;51.982;4.594;2023-02-08T08:58:50;11.43;;;9.55;;
64799;SDS011;51233;51.982;4.594;2023-02-08T09:01:50;10.57;;;9.10;;
64799;SDS011;51233;51.982;4.594;2023-02-08T09:04:50;10.82;;;9.73;;
64799;SDS011;51233;51.982;4.594;2023-02-08T09:07:51;12.07;;;9.57;;
64799;SDS011;51233;51.982;4.594;2023-02-08T09:10:51;12.55;;;9.65;;
64799;SDS011;51233;51.982;4.594;2023-02-08T09:13:51;10.82;;;9.45;;
64799;SDS011;51233;51.982;4.594;2023-02-08T09:16:54;10.27;;;9.07;;
64799;SDS011;51233;51.982;4.594;2023-02-08T09:19:54;14.02;;;9.20;;
64799;SDS011;51233;51.982;4.594;2023-02-08T09:22:55;10.68;;;9.07;;
64799;SDS011;51233;51.982;4.594;2023-02-08T09:25:55;9.93;;;8.90;;
64799;SDS011;51233;51.982;4.594;2023-02-08T09:28:55;12.20;;;9.48;;
64799;SDS011;51233;51.982;4.594;2023-02-08T09:31:56;10.60;;;9.40;;
64799;SDS011;51233;51.982;4.594;2023-02-08T09:34:56;11.88;;;9.68;;
64799;SDS011;51233;51.982;4.594;2023-02-08T09:37:56;11.17;;;9.30;;
64799;SDS011;51233;51.982;4.594;2023-02-08T09:47:32;13.20;;;9.60;;
64799;SDS011;51233;51.982;4.594;2023-02-08T09:50:36;15.13;;;9.77;;
64799;SDS011;51233;51.982;4.594;2023-02-08T09:53:39;15.00;;;10.30;;
64799;SDS011;51233;51.982;4.594;2023-02-08T09:56:43;13.27;;;9.85;;
64799;SDS011;51233;51.982;4.594;2023-02-08T09:59:47;13.87;;;10.27;;
64799;SDS011;51233;51.982;4.594;2023-02-08T10:02:49;15.70;;;10.13;;
64799;SDS011;51233;51.982;4.594;2023-02-08T10:05:52;14.02;;;10.20;;
64799;SDS011;51233;51.982;4.594;2023-02-08T10:08:53;14.10;;;9.60;;
64799;SDS011;51233;51.982;4.594;2023-02-08T10:17:58;13.25;;;10.25;;
64799;SDS011;51233;51.982;4.594;2023-02-08T10:21:09;11.52;;;9.93;;
64799;SDS011;51233;51.982;4.594;2023-02-08T10:30:34;12.32;;;9.48;;
64799;SDS011;51233;51.982;4.594;2023-02-08T10:36:56;12.88;;;9.63;;
64799;SDS011;51233;51.982;4.594;2023-02-08T10:39:56;13.85;;;10.23;;
64799;SDS011;51233;51.982;4.594;2023-02-08T10:43:02;13.48;;;10.00;;
64799;SDS011;51233;51.982;4.594;2023-02-08T10:46:13;13.48;;;9.88;;
64799;SDS011;51233;51.982;4.594;2023-02-08T10:52:15;14.10;;;9.98;;
64799;SDS011;51233;51.982;4.594;2023-02-08T10:55:16;19.00;;;10.77;;
64799;SDS011;51233;51.982;4.594;2023-02-08T10:58:18;14.98;;;10.13;;
64799;SDS011;51233;51.982;4.594;2023-02-08T11:01:18;13.25;;;9.73;;
64799;SDS011;51233;51.982;4.594;2023-02-08T11:04:19;11.43;;;9.70;;
64799;SDS011;51233;51.982;4.594;2023-02-08T11:07:19;11.90;;;10.70;;
64799;SDS011;51233;51.982;4.594;2023-02-08T11:10:21;12.27;;;10.80;;
64799;SDS011;51233;51.982;4.594;2023-02-08T11:13:22;15.38;;;10.00;;
64799;SDS011;51233;51.982;4.594;2023-02-08T11:16:24;14.80;;;10.03;;
64799;SDS011;51233;51.982;4.594;2023-02-08T11:19:35;11.15;;;9.55;;
64799;SDS011;51233;51.982;4.594;2023-02-08T11:22:41;11.55;;;10.30;;
64799;SDS011;51233;51.982;4.594;2023-02-08T11:25:47;12.52;;;9.82;;
64799;SDS011;51233;51.982;4.594;2023-02-08T11:32:00;12.70;;;9.98;;
64799;SDS011;51233;51.982;4.594;2023-02-08T11:38:19;11.90;;;8.52;;
64799;SDS011;51233;51.982;4.594;2023-02-08T11:41:26;10.65;;;8.70;;
64799;SDS011;51233;51.982;4.594;2023-02-08T11:44:30;12.27;;;8.77;;
64799;SDS011;51233;51.982;4.594;2023-02-08T11:47:32;11.50;;;8.90;;
64799;SDS011;51233;51.982;4.594;2023-02-08T11:53:34;10.32;;;8.73;;
64799;SDS011;51233;51.982;4.594;2023-02-08T11:56:37;9.20;;;8.20;;
64799;SDS011;51233;51.982;4.594;2023-02-08T11:59:37;9.60;;;8.60;;
64799;SDS011;51233;51.982;4.594;2023-02-08T12:02:38;10.63;;;7.83;;
64799;SDS011;51233;51.982;4.594;2023-02-08T12:12:08;11.25;;;8.13;;
64799;SDS011;51233;51.982;4.594;2023-02-08T12:21:32;13.02;;;7.82;;
64799;SDS011;51233;51.982;4.594;2023-02-08T12:34:09;9.32;;;7.78;;
64799;SDS011;51233;51.982;4.594;2023-02-08T12:37:19;9.18;;;8.25;;
64799;SDS011;51233;51.982;4.594;2023-02-08T12:40:45;13.43;;;9.07;;
64799;SDS011;51233;51.982;4.594;2023-02-08T12:43:56;9.48;;;7.25;;
64799;SDS011;51233;51.982;4.594;2023-02-08T12:53:14;7.40;;;6.70;;
64799;SDS011;51233;51.982;4.594;2023-02-08T12:56:16;13.45;;;6.85;;
64799;SDS011;51233;51.982;4.594;2023-02-08T13:02:18;10.52;;;7.95;;
64799;SDS011;51233;51.982;4.594;2023-02-08T13:05:21;10.57;;;6.57;;
64799;SDS011;51233;51.982;4.594;2023-02-08T13:11:23;6.35;;;5.72;;
64799;SDS011;51233;51.982;4.594;2023-02-08T13:17:27;8.00;;;6.00;;
64799;SDS011;51233;51.982;4.594;2023-02-08T13:23:41;11.95;;;6.70;;
64799;SDS011;51233;51.982;4.594;2023-02-08T13:26:42;13.68;;;7.15;;
64799;SDS011;51233;51.982;4.594;2023-02-08T13:29:43;9.97;;;7.30;;
64799;SDS011;51233;51.982;4.594;2023-02-08T13:32:45;7.65;;;6.95;;
64799;SDS011;51233;51.982;4.594;2023-02-08T13:35:50;8.73;;;7.07;;
64799;SDS011;51233;51.982;4.594;2023-02-08T13:38:52;7.93;;;6.97;;
64799;SDS011;51233;51.982;4.594;2023-02-08T13:41:53;8.20;;;7.00;;
64799;SDS011;51233;51.982;4.594;2023-02-08T13:44:54;7.32;;;6.38;;
64799;SDS011;51233;51.982;4.594;2023-02-08T13:48:05;7.50;;;6.80;;
64799;SDS011;51233;51.982;4.594;2023-02-08T13:54:36;7.15;;;6.28;;
64799;SDS011;51233;51.982;4.594;2023-02-08T14:01:34;8.13;;;6.43;;
64799;SDS011;51233;51.982;4.594;2023-02-08T14:10:31;8.32;;;6.53;;
64799;SDS011;51233;51.982;4.594;2023-02-08T14:13:43;9.00;;;6.28;;
64799;SDS011;51233;51.982;4.594;2023-02-08T14:16:45;8.40;;;6.43;;
64799;SDS011;51233;51.982;4.594;2023-02-08T14:19:54;7.03;;;6.20;;
64799;SDS011;51233;51.982;4.594;2023-02-08T14:22:55;13.55;;;6.53;;
64799;SDS011;51233;51.982;4.594;2023-02-08T14:25:57;8.15;;;6.20;;
64799;SDS011;51233;51.982;4.594;2023-02-08T14:28:59;7.03;;;6.32;;
64799;SDS011;51233;51.982;4.594;2023-02-08T14:32:00;7.32;;;6.57;;
64799;SDS011;51233;51.982;4.594;2023-02-08T14:35:08;10.20;;;6.00;;
64799;SDS011;51233;51.982;4.594;2023-02-08T14:50:53;8.68;;;6.68;;
64799;SDS011;51233;51.982;4.594;2023-02-08T14:53:55;8.07;;;6.90;;
64799;SDS011;51233;51.982;4.594;2023-02-08T14:57:01;8.27;;;7.45;;
64799;SDS011;51233;51.982;4.594;2023-02-08T15:00:05;9.60;;;7.22;;
64799;SDS011;51233;51.982;4.594;2023-02-08T15:03:06;9.88;;;7.53;;
64799;SDS011;51233;51.982;4.594;2023-02-08T15:09:23;9.45;;;7.13;;
64799;SDS011;51233;51.982;4.594;2023-02-08T15:12:28;9.15;;;7.22;;
64799;SDS011;51233;51.982;4.594;2023-02-08T15:15:38;7.68;;;6.97;;
64799;SDS011;51233;51.982;4.594;2023-02-08T15:18:40;8.02;;;7.07;;
64799;SDS011;51233;51.982;4.594;2023-02-08T15:21:44;9.15;;;6.78;;
64799;SDS011;51233;51.982;4.594;2023-02-08T15:24:51;11.07;;;6.80;;
64799;SDS011;51233;51.982;4.594;2023-02-08T15:27:53;10.93;;;6.28;;
64799;SDS011;51233;51.982;4.594;2023-02-08T15:31:01;7.65;;;6.10;;
64799;SDS011;51233;51.982;4.594;2023-02-08T15:34:02;6.55;;;5.95;;
64799;SDS011;51233;51.982;4.594;2023-02-08T15:37:02;7.00;;;6.30;;
64799;SDS011;51233;51.982;4.594;2023-02-08T15:40:19;7.07;;;6.23;;
64799;SDS011;51233;51.982;4.594;2023-02-08T15:43:20;6.72;;;5.88;;
64799;SDS011;51233;51.982;4.594;2023-02-08T15:46:21;7.82;;;6.15;;
64799;SDS011;51233;51.982;4.594;2023-02-08T15:49:27;10.75;;;6.13;;
64799;SDS011;51233;51.982;4.594;2023-02-08T15:52:41;7.72;;;6.28;;
64799;SDS011;51233;51.982;4.594;2023-02-08T15:55:46;8.18;;;6.57;;
64799;SDS011;51233;51.982;4.594;2023-02-08T15:58:51;9.35;;;6.50;;
64799;SDS011;51233;51.982;4.594;2023-02-08T16:01:53;7.65;;;6.72;;
64799;SDS011;51233;51.982;4.594;2023-02-08T16:04:53;8.87;;;6.47;;
64799;SDS011;51233;51.982;4.594;2023-02-08T16:07:54;8.73;;;6.47;;
64799;SDS011;51233;51.982;4.594;2023-02-08T16:11:01;7.10;;;6.43;;
64799;SDS011;51233;51.982;4.594;2023-02-08T16:14:02;8.18;;;6.88;;
64799;SDS011;51233;51.982;4.594;2023-02-08T16:17:03;9.13;;;6.80;;
64799;SDS011;51233;51.982;4.594;2023-02-08T16:20:19;9.18;;;6.88;;
64799;SDS011;51233;51.982;4.594;2023-02-08T16:23:21;11.23;;;7.25;;
64799;SDS011;51233;51.982;4.594;2023-02-08T16:27:13;12.38;;;6.97;;
64799;SDS011;51233;51.982;4.594;2023-02-08T16:29:44;9.52;;;7.03;;
64799;SDS011;51233;51.982;4.594;2023-02-08T16:32:45;13.90;;;7.20;;
64799;SDS011;51233;51.982;4.594;2023-02-08T16:35:45;11.67;;;7.70;;
64799;SDS011;51233;51.982;4.594;2023-02-08T16:39:02;9.07;;;7.40;;
64799;SDS011;51233;51.982;4.594;2023-02-08T16:42:18;9.82;;;7.70;;
64799;SDS011;51233;51.982;4.594;2023-02-08T16:45:19;9.25;;;8.18;;
64799;SDS011;51233;51.982;4.594;2023-02-08T16:51:25;8.82;;;7.40;;
64799;SDS011;51233;51.982;4.594;2023-02-08T16:54:25;8.90;;;7.13;;
64799;SDS011;51233;51.982;4.594;2023-02-08T16:57:42;11.73;;;7.13;;
64799;SDS011;51233;51.982;4.594;2023-02-08T17:00:43;7.95;;;6.47;;
64799;SDS011;51233;51.982;4.594;2023-02-08T17:03:44;9.40;;;7.33;;
64799;SDS011;51233;51.982;4.594;2023-02-08T17:06:44;9.30;;;6.97;;
64799;SDS011;51233;51.982;4.594;2023-02-08T17:09:45;7.80;;;7.10;;
64799;SDS011;51233;51.982;4.594;2023-02-08T17:12:45;7.78;;;6.97;;
64799;SDS011;51233;51.982;4.594;2023-02-08T17:15:46;7.80;;;7.00;;
64799;SDS011;51233;51.982;4.594;2023-02-08T17:18:49;11.60;;;8.50;;
64799;SDS011;51233;51.982;4.594;2023-02-08T17:21:56;9.32;;;8.13;;
64799;SDS011;51233;51.982;4.594;2023-02-08T17:24:56;11.02;;;7.63;;
64799;SDS011;51233;51.982;4.594;2023-02-08T17:27:58;10.73;;;8.35;;
64799;SDS011;51233;51.982;4.594;2023-02-08T17:33:58;13.85;;;8.15;;
64799;SDS011;51233;51.982;4.594;2023-02-08T17:37:03;10.35;;;6.75;;
64799;SDS011;51233;51.982;4.594;2023-02-08T17:40:03;10.50;;;7.68;;
64799;SDS011;51233;51.982;4.594;2023-02-08T17:43:04;10.03;;;8.47;;
64799;SDS011;51233;51.982;4.594;2023-02-08T17:46:11;11.55;;;8.65;;
64799;SDS011;51233;51.982;4.594;2023-02-08T17:49:12;9.95;;;7.95;;
64799;SDS011;51233;51.982;4.594;2023-02-08T17:52:12;10.13;;;8.53;;
64799;SDS011;51233;51.982;4.594;2023-02-08T17:55:16;13.65;;;9.00;;
64799;SDS011;51233;51.982;4.594;2023-02-08T17:58:16;11.32;;;6.60;;
64799;SDS011;51233;51.982;4.594;2023-02-08T18:01:18;14.47;;;10.40;;
64799;SDS011;51233;51.982;4.594;2023-02-08T18:04:18;14.65;;;10.18;;
64799;SDS011;51233;51.982;4.594;2023-02-08T18:07:19;13.23;;;11.00;;
64799;SDS011;51233;51.982;4.594;2023-02-08T18:10:20;17.27;;;11.55;;
64799;SDS011;51233;51.982;4.594;2023-02-08T18:13:21;18.20;;;12.33;;
64799;SDS011;51233;51.982;4.594;2023-02-08T18:16:22;14.82;;;12.05;;
64799;SDS011;51233;51.982;4.594;2023-02-08T18:19:23;15.23;;;10.88;;
64799;SDS011;51233;51.982;4.594;2023-02-08T18:22:23;16.90;;;10.57;;
64799;SDS011;51233;51.982;4.594;2023-02-08T18:25:23;10.60;;;8.43;;
64799;SDS011;51233;51.982;4.594;2023-02-08T18:28:24;14.40;;;8.07;;
64799;SDS011;51233;51.982;4.594;2023-02-08T18:31:24;8.38;;;7.45;;
64799;SDS011;51233;51.982;4.594;2023-02-08T18:34:24;12.63;;;7.33;;
64799;SDS011;51233;51.982;4.594;2023-02-08T18:37:25;11.57;;;7.27;;
64799;SDS011;51233;51.982;4.594;2023-02-08T18:40:25;9.23;;;7.10;;
64799;SDS011;51233;51.982;4.594;2023-02-08T18:43:25;9.47;;;7.10;;
64799;SDS011;51233;51.982;4.594;2023-02-08T18:46:27;12.55;;;7.18;;
64799;SDS011;51233;51.982;4.594;2023-02-08T18:49:27;11.07;;;7.40;;
64799;SDS011;51233;51.982;4.594;2023-02-08T18:52:28;10.27;;;7.40;;
64799;SDS011;51233;51.982;4.594;2023-02-08T18:55:28;13.20;;;7.13;;
64799;SDS011;51233;51.982;4.594;2023-02-08T18:58:28;8.00;;;7.18;;
64799;SDS011;51233;51.982;4.594;2023-02-08T19:01:28;13.83;;;9.70;;
64799;SDS011;51233;51.982;4.594;2023-02-08T19:04:29;12.00;;;9.48;;
64799;SDS011;51233;51.982;4.594;2023-02-08T19:07:29;31.00;;;20.43;;
64799;SDS011;51233;51.982;4.594;2023-02-08T19:10:34;36.22;;;23.13;;
64799;SDS011;51233;51.982;4.594;2023-02-08T19:13:34;22.60;;;18.03;;
64799;SDS011;51233;51.982;4.594;2023-02-08T19:16:38;21.40;;;17.30;;
64799;SDS011;51233;51.982;4.594;2023-02-08T19:19:38;16.27;;;12.45;;
64799;SDS011;51233;51.982;4.594;2023-02-08T19:22:39;14.97;;;10.37;;
64799;SDS011;51233;51.982;4.594;2023-02-08T19:25:39;11.73;;;9.07;;
64799;SDS011;51233;51.982;4.594;2023-02-08T19:28:39;12.77;;;8.87;;
64799;SDS011;51233;51.982;4.594;2023-02-08T19:31:40;10.75;;;9.32;;
64799;SDS011;51233;51.982;4.594;2023-02-08T19:34:40;15.00;;;9.47;;
64799;SDS011;51233;51.982;4.594;2023-02-08T19:37:43;12.38;;;9.70;;
64799;SDS011;51233;51.982;4.594;2023-02-08T19:40:50;14.20;;;10.25;;
64799;SDS011;51233;51.982;4.594;2023-02-08T19:43:50;14.77;;;10.60;;
64799;SDS011;51233;51.982;4.594;2023-02-08T19:46:52;12.82;;;10.05;;
64799;SDS011;51233;51.982;4.594;2023-02-08T19:52:53;11.88;;;10.05;;
64799;SDS011;51233;51.982;4.594;2023-02-08T19:55:54;14.48;;;9.95;;
64799;SDS011;51233;51.982;4.594;2023-02-08T19:58:54;13.65;;;9.75;;
64799;SDS011;51233;51.982;4.594;2023-02-08T20:01:54;14.02;;;8.82;;
64799;SDS011;51233;51.982;4.594;2023-02-08T20:04:54;12.63;;;9.87;;
64799;SDS011;51233;51.982;4.594;2023-02-08T20:07:55;13.95;;;9.77;;
64799;SDS011;51233;51.982;4.594;2023-02-08T20:10:55;15.13;;;10.33;;
64799;SDS011;51233;51.982;4.594;2023-02-08T20:13:56;20.33;;;11.70;;
64799;SDS011;51233;51.982;4.594;2023-02-08T20:16:57;13.27;;;9.55;;
64799;SDS011;51233;51.982;4.594;2023-02-08T20:20:00;13.77;;;9.05;;
64799;SDS011;51233;51.982;4.594;2023-02-08T20:23:00;10.80;;;8.63;;
64799;SDS011;51233;51.982;4.594;2023-02-08T20:26:09;11.13;;;8.82;;
64799;SDS011;51233;51.982;4.594;2023-02-08T20:29:10;12.75;;;9.07;;
64799;SDS011;51233;51.982;4.594;2023-02-08T20:32:10;14.25;;;10.10;;
64799;SDS011;51233;51.982;4.594;2023-02-08T20:35:11;16.40;;;13.18;;
64799;SDS011;51233;51.982;4.594;2023-02-08T20:38:11;22.38;;;15.07;;
64799;SDS011;51233;51.982;4.594;2023-02-08T20:41:12;16.17;;;12.43;;
64799;SDS011;51233;51.982;4.594;2023-02-08T20:44:13;17.67;;;12.40;;
64799;SDS011;51233;51.982;4.594;2023-02-08T20:47:14;18.55;;;12.98;;
64799;SDS011;51233;51.982;4.594;2023-02-08T20:50:18;28.30;;;20.08;;
64799;SDS011;51233;51.982;4.594;2023-02-08T20:53:18;21.87;;;15.67;;